Dimmitt, Texas
Current Conditions -  °F | °C
As of 2:55 PM on Friday 19 Dec 2014 (Local Time) from KHRX Reporting Station
Overcast Overcast  
Wind Chill: 42°   Ceiling: 1200
Heat Index: 42°   Visibility: 7mi
Dew Point: 37°   Wind: 3mph
Humidity: 85%   Direction: 230°SW
Pressure: 30.12"   Gusts: NA
Location:  34.55°N, 102.31°W
Report Text: KHRX 192055Z AUTO 23003KT 7SM OVC012 05/03 A3012 RMK AO2 T00530030
Loading
Personal Weather Stations






























Interactive Weather Map New forecast layout! Learn more

10-Day Weather Forecast

Advertisements
Track Severe Weather on mobile